Rices Landing, Pennsylvania
Current Conditions -  °F | °C
As of 3:35 AM on Monday 26 Jan 2015 (Local Time) from KAFJ Reporting Station
Overcast Overcast  
Wind Chill: 30°   Ceiling: 400
Heat Index: 30°   Visibility: 4mi
Dew Point: 28°   Wind: 0mph
Humidity: 93%   Direction: NA
Pressure: 29.7"   Gusts: NA
Location:  39.95°N, 80°W
Report Text: KAFJ 260835Z AUTO 00000KT 4SM OVC004 M01/M02 A2970 RMK AO1
Loading
Personal Weather Stations






























Interactive Weather Map New forecast layout! Learn more

10-Day Weather Forecast

Advertisements
Track Severe Weather on mobile